Time;durP1;ratioP1;P1;durP2;ratioP2;P2;SDS_P1;SDS_P2;PMS_P1;PMS_P2;Temp;Humidity;BMP_temperature;BMP_pressure;BME280_temperature;BME280_humidity;BME280_pressure;Samples;Min_cycle;Max_cycle;Signal;HPM_P1;HPM_P2
2020/12/01 00:00:42;;;;;;;17.77;9.30;;;;;;;2.80;100.00;98360.88;5073090;28;20228;-76
2020/12/01 00:03:09;;;;;;;20.67;10.00;;;;;;;2.74;100.00;98358.81;5077693;28;20224;-76
2020/12/01 00:05:36;;;;;;;19.83;9.67;;;;;;;2.71;100.00;98351.22;5074139;28;20665;-77
2020/12/01 00:08:03;;;;;;;25.47;10.57;;;;;;;2.84;100.00;98364.06;5074785;28;20251;-75
2020/12/01 00:10:34;;;;;;;21.67;9.57;;;;;;;2.87;100.00;98351.44;5074482;28;20307;-77
2020/12/01 00:13:01;;;;;;;21.60;9.80;;;;;;;2.78;100.00;98352.28;5066946;28;20243;-76
2020/12/01 00:15:28;;;;;;;25.53;10.43;;;;;;;2.84;100.00;98345.63;5070102;28;20289;-77
2020/12/01 00:17:55;;;;;;;24.67;10.67;;;;;;;2.86;100.00;98339.22;5074301;28;20201;-74
2020/12/01 00:20:23;;;;;;;22.83;9.90;;;;;;;2.82;100.00;98334.38;5074192;28;20228;-76
2020/12/01 00:22:50;;;;;;;20.03;9.60;;;;;;;2.63;100.00;98335.28;5074407;28;20229;-77
2020/12/01 00:25:17;;;;;;;24.17;10.90;;;;;;;2.67;100.00;98325.28;5074331;28;20193;-76
2020/12/01 00:27:45;;;;;;;21.47;10.13;;;;;;;2.64;100.00;98313.22;5074066;28;20205;-76
2020/12/01 00:30:15;;;;;;;25.77;11.33;;;;;;;2.36;100.00;98306.25;5074235;28;20677;-74
2020/12/01 00:32:42;;;;;;;19.27;10.50;;;;;;;2.69;100.00;98310.19;5073784;28;20205;-77
2020/12/01 00:35:10;;;;;;;20.57;10.50;;;;;;;2.58;100.00;98298.00;5074128;28;20201;-75
2020/12/01 00:37:38;;;;;;;22.47;10.67;;;;;;;2.62;100.00;98291.47;5073823;28;20650;-76
2020/12/01 00:40:05;;;;;;;22.13;10.63;;;;;;;2.52;100.00;98285.41;5074211;28;20665;-77
2020/12/01 00:42:32;;;;;;;26.47;11.87;;;;;;;2.36;100.00;98281.72;5073425;28;20225;-75
2020/12/01 00:45:00;;;;;;;22.60;11.23;;;;;;;2.41;100.00;98269.78;5073941;28;20203;-74
2020/12/01 00:47:26;;;;;;;26.33;11.83;;;;;;;2.46;100.00;98259.66;5073896;28;20205;-74
2020/12/01 00:49:53;;;;;;;27.67;11.77;;;;;;;2.47;100.00;98257.84;5073941;28;20207;-74
2020/12/01 00:52:20;;;;;;;22.77;10.30;;;;;;;2.66;100.00;98247.22;5074043;28;20577;-74
2020/12/01 00:54:47;;;;;;;33.10;13.03;;;;;;;2.50;100.00;98247.84;5073849;28;20204;-75
2020/12/01 00:57:14;;;;;;;25.27;11.70;;;;;;;2.67;100.00;98244.44;5073745;28;20238;-75
2020/12/01 00:59:40;;;;;;;23.50;10.70;;;;;;;2.63;100.00;98232.53;5073522;28;20212;-75
2020/12/01 01:02:08;;;;;;;27.27;10.77;;;;;;;2.67;100.00;98228.66;5072166;28;20236;-75
2020/12/01 01:04:35;;;;;;;23.93;11.13;;;;;;;2.67;100.00;98222.53;5073171;28;20216;-74
2020/12/01 01:07:02;;;;;;;25.87;11.53;;;;;;;2.61;100.00;98217.84;5073767;28;20235;-75
2020/12/01 01:09:28;;;;;;;25.23;10.83;;;;;;;2.62;100.00;98206.34;5073604;28;20209;-74
2020/12/01 01:11:55;;;;;;;26.23;11.27;;;;;;;2.54;100.00;98198.34;5073345;28;20223;-76
2020/12/01 01:14:22;;;;;;;25.53;11.07;;;;;;;2.61;100.00;98199.41;5073502;28;20193;-75
2020/12/01 01:16:49;;;;;;;26.20;10.47;;;;;;;2.62;100.00;98195.78;5068382;28;20205;-75
2020/12/01 01:19:17;;;;;;;29.23;12.10;;;;;;;2.65;100.00;98200.78;5073520;28;20291;-75
2020/12/01 01:21:45;;;;;;;26.33;11.03;;;;;;;2.48;100.00;98199.75;5073791;28;20225;-75
2020/12/01 01:24:12;;;;;;;24.03;10.23;;;;;;;2.63;100.00;98200.94;5073346;28;20228;-75
2020/12/01 01:26:39;;;;;;;24.53;11.00;;;;;;;2.65;100.00;98196.31;5072123;28;20207;-75
2020/12/01 01:29:06;;;;;;;25.87;11.17;;;;;;;2.68;100.00;98190.78;5073274;28;20653;-74
2020/12/01 01:31:33;;;;;;;30.60;12.37;;;;;;;2.70;100.00;98180.09;5064685;28;20565;-75
2020/12/01 01:34:00;;;;;;;23.77;10.53;;;;;;;2.66;100.00;98184.00;5073274;28;20288;-74
2020/12/01 01:36:32;;;;;;;26.10;11.33;;;;;;;2.79;100.00;98179.22;5072714;28;20201;-75
2020/12/01 01:38:59;;;;;;;24.27;11.50;;;;;;;2.85;100.00;98183.88;5073481;28;20195;-75
2020/12/01 01:41:29;;;;;;;26.70;11.40;;;;;;;2.74;100.00;98187.53;5072459;28;20228;-75
2020/12/01 01:43:56;;;;;;;25.70;11.57;;;;;;;2.75;100.00;98176.03;5073179;28;20223;-74
2020/12/01 01:46:39;;;;;;;26.73;12.47;;;;;;;2.93;100.00;98176.88;5072660;28;20637;-76
2020/12/01 01:49:08;;;;;;;23.40;11.00;;;;;;;2.76;100.00;98174.22;5072508;28;20193;-75
2020/12/01 01:51:36;;;;;;;24.73;10.27;;;;;;;2.86;100.00;98169.72;5072447;28;20266;-75
2020/12/01 01:54:03;;;;;;;24.83;10.23;;;;;;;2.86;100.00;98161.81;5072739;28;20201;-74
2020/12/01 01:56:33;;;;;;;25.90;11.67;;;;;;;2.90;100.00;98164.00;5072117;28;20812;-74
2020/12/01 01:59:01;;;;;;;29.60;12.57;;;;;;;2.85;100.00;98163.59;5072588;28;20674;-74
2020/12/01 02:01:29;;;;;;;22.83;10.10;;;;;;;2.93;100.00;98158.44;5068095;28;20233;-74
2020/12/01 02:03:58;;;;;;;22.53;9.77;;;;;;;2.99;100.00;98149.09;5072595;28;20235;-74
2020/12/01 02:09:13;;;;;;;26.63;11.57;;;;;;;2.88;100.00;98138.78;5072382;28;20197;-74
2020/12/01 02:11:43;;;;;;;27.83;11.37;;;;;;;3.09;100.00;98137.50;5072094;28;20230;-75
2020/12/01 02:14:12;;;;;;;25.83;12.00;;;;;;;2.95;100.00;98124.84;5072755;28;20193;-74
2020/12/01 02:16:41;;;;;;;22.17;9.80;;;;;;;2.88;100.00;98120.31;5072144;28;20227;-75
2020/12/01 02:19:11;;;;;;;26.03;11.40;;;;;;;3.10;100.00;98120.69;5072060;28;20208;-74
2020/12/01 02:21:39;;;;;;;23.27;10.97;;;;;;;2.86;100.00;98112.59;5071775;28;20719;-75
2020/12/01 02:24:09;;;;;;;27.93;10.93;;;;;;;3.05;100.00;98107.13;5072027;28;20255;-74
2020/12/01 02:26:37;;;;;;;25.87;11.03;;;;;;;3.06;100.00;98107.97;5071662;28;20201;-74
2020/12/01 02:29:07;;;;;;;25.20;10.90;;;;;;;2.95;100.00;98103.75;5072391;28;20206;-74
2020/12/01 02:31:34;;;;;;;25.33;11.37;;;;;;;2.93;100.00;98092.53;5074127;28;20224;-75
2020/12/01 02:34:05;;;;;;;24.57;10.23;;;;;;;3.11;100.00;98093.34;5072322;28;20205;-74
2020/12/01 02:36:32;;;;;;;25.60;11.47;;;;;;;2.99;100.00;98084.03;5072288;28;20231;-75
2020/12/01 02:38:59;;;;;;;22.43;10.63;;;;;;;3.17;100.00;98069.03;5063665;28;20212;-76
2020/12/01 02:41:26;;;;;;;24.47;10.73;;;;;;;2.87;100.00;98072.06;5071834;28;20239;-75
2020/12/01 02:43:54;;;;;;;31.13;12.03;;;;;;;3.08;100.00;98067.31;5072123;28;20590;-75
2020/12/01 02:46:20;;;;;;;24.87;10.83;;;;;;;2.93;100.00;98060.06;5071874;28;20649;-75
2020/12/01 02:48:47;;;;;;;28.30;12.70;;;;;;;3.07;100.00;98047.19;5072024;28;20228;-75
2020/12/01 02:51:15;;;;;;;24.90;10.57;;;;;;;3.04;100.00;98041.38;5071614;28;20217;-75
2020/12/01 02:53:41;;;;;;;22.77;10.93;;;;;;;2.93;100.00;98031.94;5072091;28;20197;-76
2020/12/01 02:56:08;;;;;;;22.67;11.10;;;;;;;2.91;100.00;98023.34;5072113;28;20201;-75
2020/12/01 02:58:35;;;;;;;26.60;10.20;;;;;;;2.85;100.00;98016.03;5071789;28;20201;-76
2020/12/01 03:01:03;;;;;;;26.87;11.40;;;;;;;2.93;100.00;98013.47;5071659;28;20229;-76
2020/12/01 03:03:29;;;;;;;27.37;11.13;;;;;;;2.99;100.00;98010.22;5071743;28;20227;-75
2020/12/01 03:05:56;;;;;;;25.90;10.60;;;;;;;2.96;100.00;98007.06;5072082;28;20201;-74
2020/12/01 03:08:23;;;;;;;22.90;10.03;;;;;;;2.96;100.00;98001.81;5071643;28;20211;-75
2020/12/01 03:10:50;;;;;;;28.73;10.23;;;;;;;3.07;100.00;98005.03;5071778;28;20583;-76
2020/12/01 03:13:16;;;;;;;22.77;12.00;;;;;;;3.00;100.00;97990.78;5071628;28;20203;-76
2020/12/01 03:15:45;;;;;;;23.20;9.37;;;;;;;3.17;100.00;97991.72;5070430;28;20211;-74
2020/12/01 03:18:13;;;;;;;23.03;9.83;;;;;;;2.90;100.00;97994.50;5071543;28;20201;-73
2020/12/01 03:20:40;;;;;;;22.40;10.40;;;;;;;3.14;100.00;97986.75;5071466;28;20222;-76
2020/12/01 03:23:06;;;;;;;23.07;9.87;;;;;;;3.11;100.00;97985.25;5071830;28;20228;-74
2020/12/01 03:25:33;;;;;;;22.93;10.20;;;;;;;3.15;100.00;97986.59;5071324;28;20201;-75
2020/12/01 03:28:00;;;;;;;21.77;9.07;;;;;;;3.23;100.00;97983.19;5071358;28;20204;-75
2020/12/01 03:30:27;;;;;;;23.03;10.30;;;;;;;3.23;100.00;97983.19;5071359;28;20224;-76
2020/12/01 03:32:54;;;;;;;23.60;9.73;;;;;;;3.26;100.00;97980.25;5071158;28;20189;-76
2020/12/01 03:35:21;;;;;;;22.63;9.63;;;;;;;3.15;100.00;97973.41;5071582;28;20296;-75
2020/12/01 03:37:48;;;;;;;20.13;8.90;;;;;;;3.34;100.00;97977.66;5071351;28;20212;-75
2020/12/01 03:40:15;;;;;;;25.13;9.77;;;;;;;3.09;100.00;97965.31;5071514;28;20197;-75
2020/12/01 03:42:41;;;;;;;25.67;9.33;;;;;;;4.36;100.00;97956.25;5071450;28;20209;-75
2020/12/01 03:45:08;;;;;;;21.43;9.67;;;;;;;4.03;100.00;97954.50;5070999;28;20205;-74
2020/12/01 03:47:35;;;;;;;23.07;10.90;;;;;;;3.86;100.00;97952.81;5071025;28;20695;-76
2020/12/01 03:50:03;;;;;;;21.17;9.23;;;;;;;4.21;100.00;97952.59;5073246;28;20319;-75
2020/12/01 03:52:30;;;;;;;26.10;9.73;;;;;;;4.00;100.00;97954.81;5074726;28;20200;-76
2020/12/01 03:54:57;;;;;;;24.63;10.90;;;;;;;3.88;100.00;97946.41;5074898;28;20568;-76
2020/12/01 03:57:24;;;;;;;22.57;9.13;;;;;;;3.97;100.00;97942.78;5074533;28;20552;-76
2020/12/01 03:59:51;;;;;;;22.57;9.17;;;;;;;3.98;100.00;97936.53;5074613;28;20212;-74
2020/12/01 04:02:18;;;;;;;23.50;8.97;;;;;;;3.94;100.00;97937.81;5074525;28;20228;-76
2020/12/01 04:04:44;;;;;;;21.63;9.07;;;;;;;4.18;100.00;97937.88;5075155;28;20223;-74
2020/12/01 04:07:11;;;;;;;23.33;9.87;;;;;;;4.18;100.00;97935.25;5074470;28;20692;-73
2020/12/01 04:09:39;;;;;;;20.40;8.87;;;;;;;4.12;100.00;97933.22;5074549;28;20197;-74
2020/12/01 04:12:06;;;;;;;23.97;8.87;;;;;;;4.22;100.00;97931.25;5074074;28;20324;-74
2020/12/01 04:14:32;;;;;;;23.13;9.17;;;;;;;3.99;100.00;97932.91;5074126;28;20197;-74
2020/12/01 04:16:59;;;;;;;19.57;8.50;;;;;;;4.15;100.00;97927.63;5074505;28;20212;-73
2020/12/01 04:19:26;;;;;;;16.00;7.77;;;;;;;4.16;100.00;97931.13;5074393;28;20306;-73
2020/12/01 04:21:53;;;;;;;21.60;8.40;;;;;;;4.04;100.00;97922.69;5074337;28;20308;-76
2020/12/01 04:24:19;;;;;;;25.77;9.27;;;;;;;3.95;100.00;97928.06;5074307;28;20221;-74
2020/12/01 04:26:47;;;;;;;23.83;8.87;;;;;;;4.14;100.00;97925.16;5074565;28;20211;-74
2020/12/01 04:29:14;;;;;;;19.40;9.20;;;;;;;4.18;100.00;97919.41;5074474;28;20233;-74
2020/12/01 04:31:41;;;;;;;22.93;8.87;;;;;;;4.10;100.00;97923.81;5074377;28;20225;-74
2020/12/01 04:34:07;;;;;;;18.63;8.80;;;;;;;4.02;100.00;97923.81;5074389;28;20207;-76
2020/12/01 04:36:34;;;;;;;17.30;8.13;;;;;;;4.11;100.00;97926.31;5074878;28;20204;-75
2020/12/01 04:39:01;;;;;;;20.90;9.37;;;;;;;4.01;100.00;97922.97;5071912;28;20220;-75
2020/12/01 04:41:28;;;;;;;23.13;8.83;;;;;;;4.23;100.00;97930.31;5074139;28;20232;-74
2020/12/01 04:43:57;;;;;;;21.57;9.10;;;;;;;4.09;100.00;97915.09;5074041;28;20300;-75
2020/12/01 04:46:28;;;;;;;24.37;9.57;;;;;;;4.05;100.00;97913.75;5074093;28;20204;-76
2020/12/01 04:48:58;;;;;;;20.27;8.50;;;;;;;4.10;100.00;97911.47;5073342;28;20196;-75
2020/12/01 04:51:52;;;;;;;18.47;8.73;;;;;;;4.27;100.00;97915.75;5073709;28;20601;-73
2020/12/01 04:54:45;;;;;;;19.00;7.97;;;;;;;4.21;100.00;97902.41;5073801;28;20242;-73
2020/12/01 04:57:38;;;;;;;19.80;8.87;;;;;;;3.93;100.00;97908.94;5069575;28;20206;-75
2020/12/01 05:00:20;;;;;;;20.97;8.27;;;;;;;3.99;100.00;97903.84;5065735;28;20227;-76
2020/12/01 05:03:10;;;;;;;18.50;8.03;;;;;;;3.93;100.00;97907.16;5072214;28;20201;-75
2020/12/01 05:05:53;;;;;;;18.23;8.43;;;;;;;3.93;100.00;97901.03;5073297;28;20196;-74
2020/12/01 05:08:39;;;;;;;23.57;8.13;;;;;;;4.02;100.00;97900.88;5073378;28;20241;-75
2020/12/01 05:11:16;;;;;;;22.53;8.90;;;;;;;4.04;100.00;97900.72;5066577;28;20232;-74
2020/12/01 05:13:46;;;;;;;19.13;8.60;;;;;;;4.01;100.00;97901.06;5073403;28;20572;-75
2020/12/01 05:16:29;;;;;;;21.43;8.50;;;;;;;4.20;100.00;97898.09;5073221;28;20295;-73
2020/12/01 05:18:56;;;;;;;20.50;8.13;;;;;;;4.20;100.00;97903.38;5073308;28;20273;-74
2020/12/01 05:21:26;;;;;;;17.67;8.40;;;;;;;4.17;100.00;97901.88;5072835;28;20228;-74
2020/12/01 05:23:53;;;;;;;20.23;8.90;;;;;;;4.08;100.00;97904.69;5073424;28;20261;-74
2020/12/01 05:26:22;;;;;;;20.03;8.50;;;;;;;4.21;100.00;97902.41;5072369;28;20214;-73
2020/12/01 05:28:51;;;;;;;21.03;9.17;;;;;;;4.06;100.00;97899.56;5071563;28;20202;-79
2020/12/01 05:31:22;;;;;;;17.40;8.03;;;;;;;4.39;100.00;97900.41;5073502;28;20222;-77
2020/12/01 05:33:59;;;;;;;24.77;11.02;;;;;;;4.23;100.00;97903.88;5073049;28;20448;-77
2020/12/01 05:36:31;;;;;;;22.67;11.13;;;;;;;4.10;100.00;97895.63;5070322;28;20442;-75
2020/12/01 05:39:01;;;;;;;19.13;8.13;;;;;;;4.18;100.00;97895.63;5064644;28;20200;-74
2020/12/01 05:41:30;;;;;;;22.97;9.17;;;;;;;4.35;100.00;97904.38;5072386;28;20229;-78
2020/12/01 05:43:59;;;;;;;23.00;8.93;;;;;;;4.30;100.00;97907.50;5072301;28;20694;-73
2020/12/01 05:46:33;;;;;;;18.60;9.17;;;;;;;4.36;100.00;97909.50;5072718;28;20292;-73
2020/12/01 05:49:04;;;;;;;18.97;8.97;;;;;;;4.25;100.00;97909.81;5072507;28;20276;-73
2020/12/01 05:51:40;;;;;;;17.57;7.87;;;;;;;4.40;100.00;97904.69;5072288;28;20229;-72
2020/12/01 05:54:14;;;;;;;20.73;7.90;;;;;;;4.51;100.00;97901.72;5072576;28;20863;-73
2020/12/01 05:56:48;;;;;;;22.97;8.47;;;;;;;4.38;100.00;97907.53;5072374;28;20216;-73
2020/12/01 05:59:17;;;;;;;20.37;8.87;;;;;;;4.47;100.00;97911.00;5072130;28;20201;-73
2020/12/01 06:01:47;;;;;;;19.53;9.30;;;;;;;4.42;100.00;97913.31;5072038;28;20226;-79
2020/12/01 06:04:17;;;;;;;24.10;8.50;;;;;;;3.95;100.00;97912.25;5072267;28;20220;-75
2020/12/01 06:07:12;;;;;;;18.40;8.67;;;;;;;4.35;100.00;97914.94;5072145;28;20662;-79
2020/12/01 06:10:01;;;;;;;24.13;8.80;;;;;;;4.42;100.00;97906.19;5069161;28;20200;-80
2020/12/01 06:12:44;;;;;;;15.40;7.07;;;;;;;4.43;100.00;97904.38;5069034;28;20713;-76
2020/12/01 06:15:15;;;;;;;20.03;8.57;;;;;;;4.34;100.00;97906.22;5065972;28;20195;-74
2020/12/01 06:17:48;;;;;;;19.40;8.00;;;;;;;4.39;100.00;97909.19;5071921;28;20195;-73
2020/12/01 06:20:19;;;;;;;19.27;8.80;;;;;;;4.37;100.00;97902.41;5072155;28;20582;-76
2020/12/01 06:23:14;;;;;;;22.07;9.53;;;;;;;4.37;100.00;97897.94;5071984;28;20650;-74
2020/12/01 06:26:17;;;;;;;19.97;8.20;;;;;;;4.41;100.00;97896.63;5072232;28;20227;-74
2020/12/01 06:29:05;;;;;;;21.63;7.93;;;;;;;4.48;100.00;97897.59;5049253;28;20205;-75
2020/12/01 06:31:47;;;;;;;21.90;9.43;;;;;;;4.49;100.00;97901.91;5070091;28;20231;-74
2020/12/01 06:34:45;;;;;;;22.90;8.87;;;;;;;4.06;100.00;97898.75;5072064;28;20186;-74
2020/12/01 06:37:28;;;;;;;16.63;8.03;;;;;;;4.36;100.00;97901.56;5069773;28;20210;-72
2020/12/01 06:40:30;;;;;;;19.53;8.20;;;;;;;4.46;100.00;97909.31;5071932;28;20202;-76
2020/12/01 06:43:02;;;;;;;19.47;8.30;;;;;;;4.44;100.00;97901.59;5065870;28;20295;-76
2020/12/01 06:45:33;;;;;;;18.80;8.43;;;;;;;4.35;100.00;97889.34;5072828;28;20289;-81
2020/12/01 06:48:07;;;;;;;22.10;9.83;;;;;;;4.47;100.00;97893.31;5067518;28;20292;-82
2020/12/01 06:50:36;;;;;;;21.33;9.00;;;;;;;4.37;100.00;97892.66;5074590;28;20255;-73
2020/12/01 06:53:05;;;;;;;21.23;8.30;;;;;;;4.51;100.00;97893.78;5074330;28;20202;-80
2020/12/01 06:55:51;;;;;;;23.67;8.67;;;;;;;4.61;100.00;97895.28;5071964;28;20249;-76
2020/12/01 06:58:31;;;;;;;24.03;9.97;;;;;;;4.48;100.00;97888.88;5067100;28;20198;-77
2020/12/01 07:01:05;;;;;;;27.43;11.27;;;;;;;4.54;100.00;97893.47;5071972;28;20307;-72
2020/12/01 07:03:32;;;;;;;20.10;9.30;;;;;;;4.43;100.00;97899.91;5071776;28;20861;-73
2020/12/01 07:06:21;;;;;;;19.97;9.13;;;;;;;4.55;100.00;97900.41;5071892;28;20208;-75
2020/12/01 07:08:48;;;;;;;24.00;8.63;;;;;;;4.55;100.00;97901.25;5066109;28;20208;-75
2020/12/01 07:11:27;;;;;;;22.13;8.47;;;;;;;4.38;100.00;97888.19;5071286;28;20225;-75
2020/12/01 07:13:58;;;;;;;17.37;8.87;;;;;;;4.25;100.00;97891.34;5071310;28;20205;-75
2020/12/01 07:16:30;;;;;;;27.83;10.40;;;;;;;4.44;100.00;97900.75;5071403;28;20669;-74
2020/12/01 07:18:59;;;;;;;22.93;9.60;;;;;;;4.47;100.00;97892.50;5070438;28;20209;-75
2020/12/01 07:21:42;;;;;;;24.67;9.40;;;;;;;4.41;100.00;97893.13;5070869;28;20725;-75
2020/12/01 07:24:22;;;;;;;17.00;7.80;;;;;;;4.44;100.00;97891.00;5073851;28;20243;-74
2020/12/01 07:26:53;;;;;;;22.13;9.40;;;;;;;4.54;100.00;97894.31;5074478;28;20300;-73
2020/12/01 07:29:41;;;;;;;21.17;8.50;;;;;;;4.60;100.00;97891.00;5075168;28;20220;-73
2020/12/01 07:32:14;;;;;;;26.27;8.70;;;;;;;4.67;100.00;97902.53;5075236;28;20225;-74
2020/12/01 07:34:42;;;;;;;16.03;7.73;;;;;;;4.60;100.00;97904.22;5075288;28;20650;-76
2020/12/01 07:37:32;;;;;;;18.90;7.77;;;;;;;4.69;100.00;97907.66;5075476;28;20205;-74
2020/12/01 07:40:01;;;;;;;20.13;8.33;;;;;;;4.76;100.00;97908.63;5071864;28;20208;-73
2020/12/01 07:42:32;;;;;;;19.93;7.97;;;;;;;4.85;100.00;97902.34;5074476;28;20210;-73
2020/12/01 07:45:01;;;;;;;17.60;8.37;;;;;;;4.84;100.00;97904.19;5067046;28;20213;-73
2020/12/01 07:47:28;;;;;;;20.43;8.37;;;;;;;4.86;100.00;97896.06;5074998;28;20311;-74
2020/12/01 07:50:03;;;;;;;16.87;8.20;;;;;;;4.87;100.00;97892.47;5075270;28;20202;-73
2020/12/01 07:52:34;;;;;;;17.90;8.07;;;;;;;4.92;100.00;97896.22;5073867;28;20209;-74
2020/12/01 07:55:04;;;;;;;17.73;7.90;;;;;;;4.88;100.00;97904.69;5074566;28;20209;-73
2020/12/01 07:57:31;;;;;;;17.27;7.47;;;;;;;4.96;100.00;97905.47;5074857;28;20217;-73
2020/12/01 08:00:00;;;;;;;18.73;8.03;;;;;;;4.91;100.00;97912.25;5074189;28;20209;-74
2020/12/01 08:02:29;;;;;;;24.00;8.43;;;;;;;4.94;100.00;97911.94;5074532;28;20206;-73
2020/12/01 08:05:07;;;;;;;18.97;8.57;;;;;;;4.95;100.00;97903.84;5074195;28;20234;-73
2020/12/01 08:07:35;;;;;;;25.63;8.90;;;;;;;4.89;100.00;97907.16;5074329;28;20194;-75
2020/12/01 08:10:05;;;;;;;20.03;7.63;;;;;;;4.95;100.00;97909.13;5074602;28;20209;-74
2020/12/01 08:12:35;;;;;;;24.53;8.67;;;;;;;4.68;100.00;97913.94;5073993;28;20673;-77
2020/12/01 08:15:05;;;;;;;16.50;7.97;;;;;;;4.90;100.00;97907.97;5073745;28;20217;-74
2020/12/01 08:17:35;;;;;;;19.33;7.87;;;;;;;4.84;100.00;97903.34;5074739;28;20290;-74
2020/12/01 08:20:03;;;;;;;17.67;7.73;;;;;;;4.79;100.00;97906.50;5066679;28;20202;-74
2020/12/01 08:22:37;;;;;;;19.17;7.40;;;;;;;4.92;100.00;97906.81;5074379;28;20202;-74
2020/12/01 08:25:06;;;;;;;19.67;7.40;;;;;;;5.05;100.00;97911.56;5074411;28;20206;-74
2020/12/01 08:27:41;;;;;;;19.33;7.77;;;;;;;5.12;100.00;97915.22;5073902;28;20209;-75
2020/12/01 08:30:18;;;;;;;21.07;7.77;;;;;;;4.91;100.00;97914.91;5074171;28;20209;-74
2020/12/01 08:32:47;;;;;;;12.13;6.63;;;;;;;4.93;100.00;97913.75;5073784;28;20195;-74
2020/12/01 08:35:20;;;;;;;13.47;6.27;;;;;;;5.12;100.00;97913.38;5072744;28;20213;-74
2020/12/01 08:37:52;;;;;;;12.07;5.40;;;;;;;5.04;100.00;97910.78;5073989;28;20277;-74
2020/12/01 08:40:27;;;;;;;13.07;5.53;;;;;;;4.91;100.00;97922.84;5074002;28;20284;-73
2020/12/01 08:43:01;;;;;;;12.77;5.60;;;;;;;5.15;100.00;97910.41;5073018;28;20204;-73
2020/12/01 08:45:41;;;;;;;10.87;5.33;;;;;;;5.18;100.00;97904.75;5073634;28;20210;-73
2020/12/01 08:48:17;;;;;;;14.33;5.80;;;;;;;4.98;100.00;97911.41;5071750;28;20194;-74
2020/12/01 08:50:44;;;;;;;15.00;6.70;;;;;;;5.10;100.00;97917.19;5071470;28;20217;-74
2020/12/01 08:53:14;;;;;;;16.23;6.60;;;;;;;5.20;100.00;97918.66;5073637;28;20209;-74
2020/12/01 08:55:48;;;;;;;17.03;6.83;;;;;;;5.03;100.00;97918.88;5073559;28;20203;-74
2020/12/01 08:58:23;;;;;;;13.23;6.07;;;;;;;5.22;100.00;97919.31;5073450;28;20191;-74
2020/12/01 09:00:59;;;;;;;16.70;6.97;;;;;;;5.23;100.00;97923.59;5073449;28;20229;-74
2020/12/01 09:03:26;;;;;;;18.57;6.57;;;;;;;5.39;100.00;97920.09;5073106;28;20627;-73
2020/12/01 09:05:53;;;;;;;18.27;5.87;;;;;;;5.22;100.00;97929.88;5073669;28;20274;-73
2020/12/01 09:08:38;;;;;;;29.70;8.27;;;;;;;5.36;100.00;97928.34;5072052;28;20211;-74
2020/12/01 09:11:34;;;;;;;14.87;6.37;;;;;;;5.30;100.00;97924.59;5072722;28;20240;-73
2020/12/01 09:14:09;;;;;;;18.70;7.63;;;;;;;5.36;100.00;97921.25;5070893;28;20285;-71
2020/12/01 09:16:49;;;;;;;17.93;7.93;;;;;;;5.35;100.00;97926.72;5073067;28;20212;-74
2020/12/01 09:22:14;;;;;;;18.70;8.77;;;;;;;5.37;100.00;97922.91;5069978;28;20776;-73
2020/12/01 09:24:41;;;;;;;21.90;9.77;;;;;;;5.32;100.00;97925.22;5072683;28;20226;-73
2020/12/01 09:27:10;;;;;;;19.27;8.63;;;;;;;5.43;100.00;97926.69;5073214;28;20213;-73
2020/12/01 09:29:37;;;;;;;21.67;10.07;;;;;;;5.67;100.00;97929.22;5072782;28;20205;-73
2020/12/01 09:32:07;;;;;;;21.87;9.97;;;;;;;5.66;100.00;97927.56;5072667;28;20229;-74
2020/12/01 09:34:35;;;;;;;24.73;8.83;;;;;;;5.80;100.00;97926.88;5072621;28;20206;-74
2020/12/01 09:37:03;;;;;;;25.80;10.40;;;;;;;5.60;100.00;97937.06;5072582;28;20199;-73
2020/12/01 09:39:30;;;;;;;21.03;8.93;;;;;;;5.47;100.00;97936.75;5072820;28;20210;-74
2020/12/01 09:42:04;;;;;;;21.90;9.87;;;;;;;5.53;100.00;97941.34;5071977;28;20237;-74
2020/12/01 09:47:17;;;;;;;23.67;9.37;;;;;;;5.56;100.00;97937.53;5070438;28;20206;-73
2020/12/01 09:49:44;;;;;;;24.60;10.03;;;;;;;5.60;100.00;97934.41;5072746;28;20205;-72
2020/12/01 09:52:14;;;;;;;33.63;14.47;;;;;;;5.60;100.00;97939.69;5071760;28;20231;-74
2020/12/01 09:54:45;;;;;;;31.93;12.37;;;;;;;5.61;100.00;97938.69;5072311;28;20203;-73
2020/12/01 09:57:17;;;;;;;30.30;11.87;;;;;;;5.30;100.00;97942.25;5072422;28;20226;-73
2020/12/01 10:05:31;;;;;;;14.63;6.90;;;;;;;5.33;100.00;97942.75;5067953;28;20267;-73
2020/12/01 10:08:17;;;;;;;18.67;8.03;;;;;;;5.37;100.00;97946.72;5072011;28;20648;-73
2020/12/01 10:10:59;;;;;;;15.50;7.30;;;;;;;5.55;100.00;97936.75;5069769;28;20256;-73
2020/12/01 10:13:41;;;;;;;13.53;6.30;;;;;;;5.29;100.00;97944.06;5067286;28;20210;-73
2020/12/01 10:35:44;;;;;;;16.33;6.83;;;;;;;5.55;100.00;97936.75;5071908;28;20205;-73
2020/12/01 10:38:13;;;;;;;14.90;7.30;;;;;;;5.41;100.00;97948.03;5071758;28;20662;-73
2020/12/01 10:40:40;;;;;;;17.93;7.70;;;;;;;5.55;100.00;97941.19;5071162;28;20810;-72
2020/12/01 10:43:07;;;;;;;17.93;7.97;;;;;;;5.27;100.00;97939.94;5070890;28;20283;-73
2020/12/01 10:45:34;;;;;;;14.50;6.90;;;;;;;5.10;100.00;97943.63;5070871;28;20230;-77
2020/12/01 10:48:01;;;;;;;15.67;5.53;;;;;;;5.53;100.00;97944.00;5071739;28;20908;-73
2020/12/01 10:50:30;;;;;;;11.80;5.50;;;;;;;4.77;100.00;97953.41;5066699;28;20221;-72
2020/12/01 10:52:58;;;;;;;7.10;3.33;;;;;;;4.83;100.00;97955.41;5071645;28;20209;-74
2020/12/01 10:55:28;;;;;;;9.63;3.70;;;;;;;5.08;100.00;97943.78;5072112;28;20197;-72
2020/12/01 10:57:55;;;;;;;9.20;4.03;;;;;;;5.10;100.00;97941.81;5072088;28;20215;-75
2020/12/01 11:00:24;;;;;;;6.90;3.63;;;;;;;5.06;100.00;97951.09;5075278;28;20698;-73
2020/12/01 11:02:51;;;;;;;7.30;3.43;;;;;;;5.05;100.00;97945.97;5075620;28;20614;-73
2020/12/01 11:05:21;;;;;;;6.53;3.70;;;;;;;5.10;100.00;97952.41;5069546;28;20318;-73
2020/12/01 11:07:48;;;;;;;8.13;3.67;;;;;;;5.30;100.00;97947.56;5074616;28;20203;-73
2020/12/01 11:10:16;;;;;;;5.83;3.57;;;;;;;5.43;100.00;97955.81;5075715;28;20219;-75
2020/12/01 11:12:43;;;;;;;7.90;3.73;;;;;;;4.91;100.00;97965.97;5074535;28;20797;-73
2020/12/01 11:15:10;;;;;;;7.23;4.17;;;;;;;4.78;100.00;97947.13;5075247;28;20745;-74
2020/12/01 11:17:37;;;;;;;7.17;3.37;;;;;;;5.18;100.00;97952.38;5075929;28;20300;-74
2020/12/01 11:20:04;;;;;;;6.53;3.53;;;;;;;5.22;100.00;97955.50;5075311;28;20208;-74
2020/12/01 11:22:31;;;;;;;8.00;3.97;;;;;;;5.01;100.00;97969.28;5075202;28;20282;-73
2020/12/01 11:24:58;;;;;;;7.63;3.80;;;;;;;5.33;100.00;97957.81;5075175;28;20231;-74
2020/12/01 11:27:25;;;;;;;6.97;3.50;;;;;;;5.24;100.00;97956.97;5075295;28;20207;-73
2020/12/01 11:29:52;;;;;;;5.40;3.30;;;;;;;5.05;100.00;97962.66;5074763;28;20289;-73
2020/12/01 11:32:19;;;;;;;5.20;2.83;;;;;;;5.08;100.00;97957.03;5074839;28;20571;-73
2020/12/01 11:34:46;;;;;;;7.97;3.77;;;;;;;4.67;100.00;97960.69;5074871;28;20205;-73
2020/12/01 11:37:12;;;;;;;6.43;3.50;;;;;;;4.76;100.00;97953.59;5075173;28;20244;-73
2020/12/01 11:39:39;;;;;;;6.77;3.80;;;;;;;5.18;100.00;97962.16;5074574;28;20211;-73
2020/12/01 11:42:06;;;;;;;6.83;3.53;;;;;;;5.35;100.00;97963.75;5074244;28;20640;-73
2020/12/01 11:44:34;;;;;;;9.90;3.40;;;;;;;5.41;100.00;97953.31;5074677;28;20221;-73
2020/12/01 11:47:00;;;;;;;8.50;3.73;;;;;;;5.21;100.00;97956.50;5075037;28;20200;-75
2020/12/01 11:49:27;;;;;;;8.43;4.43;;;;;;;4.72;100.00;97968.94;5075060;28;20570;-78
2020/12/01 11:51:54;;;;;;;6.17;3.13;;;;;;;4.59;100.00;97960.72;5073603;28;20227;-78
2020/12/01 11:54:22;;;;;;;5.37;3.30;;;;;;;4.68;100.00;97961.53;5074669;28;20288;-77
2020/12/01 11:56:48;;;;;;;7.00;3.60;;;;;;;4.97;100.00;97960.00;5075121;28;20566;-76
2020/12/01 11:59:15;;;;;;;7.27;3.80;;;;;;;5.28;100.00;97954.84;5074755;28;20204;-75
2020/12/01 12:01:43;;;;;;;11.10;3.87;;;;;;;5.32;100.00;97964.06;5074604;28;20235;-73
2020/12/01 12:04:10;;;;;;;6.90;3.50;;;;;;;5.19;100.00;97969.09;5074517;28;20768;-73
2020/12/01 12:06:37;;;;;;;8.60;4.30;;;;;;;5.61;100.00;97967.81;5074800;28;20206;-73
2020/12/01 12:09:05;;;;;;;6.70;3.97;;;;;;;5.01;100.00;97973.72;5074033;28;20683;-73
2020/12/01 12:11:31;;;;;;;7.37;4.27;;;;;;;5.20;100.00;97976.00;5073314;28;20232;-73
2020/12/01 12:13:58;;;;;;;8.03;4.67;;;;;;;5.07;100.00;97971.25;5074363;28;20270;-72